Terminal Aerodrome Forecast
Issued by NWS

Home | Current Version | Previous Version | Graphics & Text | Print | Product List | Glossary On
Versions: 1 2 3 4 5 6 7 8 9 10 11 12 13 14 15 16 17 18 19 20 21 22
000
FTUS43 KGRB 150401 AAA
TAFRHI
TAF AMD
KRHI 150401Z 1504/1524 25004KT 6SM -SHSN OVC035
      TEMPO 1504/1508 2SM -SHSN OVC017
     FM150800 28006KT P6SM -SHSN BKN015
     FM151700 28008KT P6SM -SHSN BKN024=

USA.gov is the U.S. government's official web portal to all federal, state and local government web resources and services.